Time;durP1;ratioP1;P1;durP2;ratioP2;P2;SDS_P1;SDS_P2;PMS_P1;PMS_P2;Temp;Humidity;BMP_temperature;BMP_pressure;BME280_temperature;BME280_humidity;BME280_pressure;Samples;Min_cycle;Max_cycle;Signal;HPM_P1;HPM_P2
2023/11/13 00:02:18;;;;;;;12.63;9.27;;;;;;;;;;2610821;54;20441;-74
2023/11/13 00:04:45;;;;;;;13.63;8.90;;;;;;;;;;2612560;54;20491;-73
2023/11/13 00:07:13;;;;;;;12.53;8.80;;;;;;;;;;2612321;54;20409;-72
2023/11/13 00:09:39;;;;;;;12.13;8.80;;;;;;;;;;2612832;54;20493;-72
2023/11/13 00:12:06;;;;;;;14.57;9.40;;;;;;;;;;2612680;54;20426;-74
2023/11/13 00:14:32;;;;;;;12.17;8.60;;;;;;;;;;2612619;54;20436;-72
2023/11/13 00:17:00;;;;;;;15.87;7.90;;;;;;;;;;2611894;47;20429;-75
2023/11/13 00:19:26;;;;;;;9.63;8.10;;;;;;;;;;2611908;54;20396;-73
2023/11/13 00:21:52;;;;;;;13.33;8.00;;;;;;;;;;2612076;54;20501;-71
2023/11/13 00:24:18;;;;;;;11.60;8.23;;;;;;;;;;2612048;54;20420;-74
2023/11/13 00:26:45;;;;;;;11.20;9.23;;;;;;;;;;2612464;54;20423;-73
2023/11/13 00:29:15;;;;;;;14.20;8.93;;;;;;;;;;2612924;54;20502;-75
2023/11/13 00:31:42;;;;;;;20.10;10.07;;;;;;;;;;2612634;54;20459;-73
2023/11/13 00:34:08;;;;;;;13.33;7.70;;;;;;;;;;2612199;54;20504;-74
2023/11/13 00:36:34;;;;;;;16.37;9.50;;;;;;;;;;2612690;54;20411;-74
2023/11/13 00:39:00;;;;;;;20.30;8.90;;;;;;;;;;2613356;54;20905;-73
2023/11/13 00:41:31;;;;;;;12.17;9.90;;;;;;;;;;2612235;54;20489;-74
2023/11/13 00:43:57;;;;;;;15.50;9.47;;;;;;;;;;2612787;39;21929;-74
2023/11/13 00:46:25;;;;;;;12.77;9.53;;;;;;;;;;2613437;54;20909;-72
2023/11/13 00:48:51;;;;;;;17.90;8.50;;;;;;;;;;2613349;39;20849;-73
2023/11/13 00:51:18;;;;;;;11.90;8.70;;;;;;;;;;2612960;54;20415;-74
2023/11/13 00:53:43;;;;;;;10.93;8.10;;;;;;;;;;2610987;54;20414;-74
2023/11/13 00:56:09;;;;;;;10.73;8.23;;;;;;;;;;2612925;54;20988;-74
2023/11/13 00:58:36;;;;;;;12.83;8.33;;;;;;;;;;2612284;54;20432;-74
2023/11/13 01:01:13;;;;;;;14.10;8.37;;;;;;;;;;2612388;54;20424;-74
2023/11/13 01:03:42;;;;;;;18.00;8.90;;;;;;;;;;2613851;54;20425;-76
2023/11/13 01:06:08;;;;;;;11.80;8.03;;;;;;;;;;2614096;54;20408;-75
2023/11/13 01:08:34;;;;;;;15.47;8.60;;;;;;;;;;2614109;54;20440;-75
2023/11/13 01:11:01;;;;;;;12.77;9.10;;;;;;;;;;2613573;47;20417;-76
2023/11/13 01:13:27;;;;;;;16.60;8.37;;;;;;;;;;2612867;51;20441;-73
2023/11/13 01:15:53;;;;;;;19.07;9.00;;;;;;;;;;2612608;54;20928;-73
2023/11/13 01:18:19;;;;;;;11.27;7.87;;;;;;;;;;2612761;54;20936;-73
2023/11/13 01:20:46;;;;;;;12.30;9.17;;;;;;;;;;2612602;54;20963;-72
2023/11/13 01:23:12;;;;;;;10.90;8.40;;;;;;;;;;2612566;54;20391;-72
2023/11/13 01:25:38;;;;;;;11.50;9.20;;;;;;;;;;2613374;54;20405;-73
2023/11/13 01:28:04;;;;;;;18.90;8.07;;;;;;;;;;2612074;54;20432;-73
2023/11/13 01:30:30;;;;;;;11.77;7.60;;;;;;;;;;2611842;54;20413;-73
2023/11/13 01:32:57;;;;;;;18.23;8.03;;;;;;;;;;2612874;54;20430;-73
2023/11/13 01:35:27;;;;;;;19.17;8.50;;;;;;;;;;2613089;54;20421;-73
2023/11/13 01:37:54;;;;;;;20.87;7.83;;;;;;;;;;2613086;54;20571;-74
2023/11/13 01:40:20;;;;;;;17.10;8.33;;;;;;;;;;2612826;54;20392;-74
2023/11/13 01:42:46;;;;;;;11.73;7.73;;;;;;;;;;2612166;54;20418;-72
2023/11/13 01:45:12;;;;;;;17.53;8.50;;;;;;;;;;2612375;54;20924;-72
2023/11/13 01:47:39;;;;;;;9.57;7.50;;;;;;;;;;2612753;54;20516;-75
2023/11/13 01:50:09;;;;;;;10.60;7.70;;;;;;;;;;2613266;54;20405;-74
2023/11/13 01:52:35;;;;;;;11.83;6.60;;;;;;;;;;2612975;54;20399;-74
2023/11/13 01:55:02;;;;;;;13.00;7.17;;;;;;;;;;2611925;47;20434;-72
2023/11/13 01:57:29;;;;;;;11.40;8.57;;;;;;;;;;2612902;54;20410;-72
2023/11/13 01:59:56;;;;;;;10.27;6.60;;;;;;;;;;2612737;54;20392;-72
2023/11/13 02:02:22;;;;;;;9.17;6.90;;;;;;;;;;2612777;54;20404;-75
2023/11/13 02:04:50;;;;;;;13.17;7.67;;;;;;;;;;2613662;54;20491;-74
2023/11/13 02:07:16;;;;;;;11.20;6.80;;;;;;;;;;2613365;54;20448;-75
2023/11/13 02:09:42;;;;;;;10.90;7.03;;;;;;;;;;2613209;50;20953;-75
2023/11/13 02:12:09;;;;;;;8.70;6.20;;;;;;;;;;2612168;54;20903;-72
2023/11/13 02:14:36;;;;;;;12.33;6.40;;;;;;;;;;2614155;39;20870;-76
2023/11/13 02:17:03;;;;;;;10.30;8.17;;;;;;;;;;2614120;54;20421;-75
2023/11/13 02:19:29;;;;;;;9.63;7.83;;;;;;;;;;2614203;39;20841;-76
2023/11/13 02:21:55;;;;;;;9.97;7.50;;;;;;;;;;2613008;54;20433;-74
2023/11/13 02:24:21;;;;;;;10.67;7.37;;;;;;;;;;2612422;54;20436;-73
2023/11/13 02:26:47;;;;;;;12.70;7.50;;;;;;;;;;2613013;39;20674;-74
2023/11/13 02:29:13;;;;;;;7.67;6.60;;;;;;;;;;2612862;54;20471;-74
2023/11/13 02:31:56;;;;;;;9.37;7.60;;;;;;;;;;2611611;47;20436;-74
2023/11/13 02:34:22;;;;;;;10.37;7.10;;;;;;;;;;2612363;54;20448;-74
2023/11/13 02:36:52;;;;;;;11.00;7.10;;;;;;;;;;2612879;54;20429;-74
2023/11/13 02:39:22;;;;;;;14.27;7.97;;;;;;;;;;2612820;54;20492;-73
2023/11/13 02:41:48;;;;;;;9.70;6.50;;;;;;;;;;2612392;54;21042;-74
2023/11/13 02:44:15;;;;;;;13.00;7.13;;;;;;;;;;2612920;46;20404;-74
2023/11/13 02:46:42;;;;;;;12.23;6.53;;;;;;;;;;2612168;47;20409;-73
2023/11/13 02:49:08;;;;;;;16.97;7.53;;;;;;;;;;2612352;54;20379;-73
2023/11/13 02:51:34;;;;;;;15.93;7.00;;;;;;;;;;2612122;54;20466;-73
2023/11/13 02:54:00;;;;;;;9.87;6.93;;;;;;;;;;2612011;46;20547;-73
2023/11/13 02:56:27;;;;;;;9.23;6.73;;;;;;;;;;2611487;47;20927;-73
2023/11/13 02:58:53;;;;;;;9.07;6.97;;;;;;;;;;2611988;54;20470;-73
2023/11/13 03:01:19;;;;;;;12.57;7.80;;;;;;;;;;2611629;54;20407;-73
2023/11/13 03:03:45;;;;;;;12.57;7.23;;;;;;;;;;2612455;54;20432;-73
2023/11/13 03:06:12;;;;;;;10.00;6.87;;;;;;;;;;2611942;54;20435;-73
2023/11/13 03:08:41;;;;;;;11.40;7.07;;;;;;;;;;2612525;54;21059;-74
2023/11/13 03:11:08;;;;;;;11.40;7.27;;;;;;;;;;2612920;54;20424;-73
2023/11/13 03:13:34;;;;;;;10.23;6.47;;;;;;;;;;2612436;54;20397;-74
2023/11/13 03:16:00;;;;;;;8.67;6.10;;;;;;;;;;2612583;54;20417;-73
2023/11/13 03:18:26;;;;;;;10.43;6.90;;;;;;;;;;2611716;54;20425;-74
2023/11/13 03:20:52;;;;;;;8.23;5.83;;;;;;;;;;2612474;54;20548;-74
2023/11/13 03:23:18;;;;;;;8.83;6.93;;;;;;;;;;2613078;54;20921;-76
2023/11/13 03:25:45;;;;;;;11.07;6.77;;;;;;;;;;2614050;54;20424;-78
2023/11/13 03:28:11;;;;;;;9.90;6.80;;;;;;;;;;2612963;54;20429;-76
2023/11/13 03:30:37;;;;;;;7.47;6.60;;;;;;;;;;2613616;54;20433;-76
2023/11/13 03:33:04;;;;;;;10.10;7.00;;;;;;;;;;2611246;47;20515;-76
2023/11/13 03:35:30;;;;;;;7.30;5.70;;;;;;;;;;2613575;54;21049;-74
2023/11/13 03:37:56;;;;;;;12.00;7.60;;;;;;;;;;2614080;39;20918;-75
2023/11/13 03:40:24;;;;;;;9.57;6.10;;;;;;;;;;2614073;54;20412;-75
2023/11/13 03:42:50;;;;;;;8.20;5.53;;;;;;;;;;2614025;39;20824;-73
2023/11/13 03:45:16;;;;;;;8.47;6.43;;;;;;;;;;2613377;39;20757;-73
2023/11/13 03:47:42;;;;;;;7.40;6.13;;;;;;;;;;2612713;54;20994;-74
2023/11/13 03:50:08;;;;;;;8.53;6.57;;;;;;;;;;2613112;54;20408;-74
2023/11/13 03:52:35;;;;;;;10.67;7.10;;;;;;;;;;2611786;54;20449;-73
2023/11/13 03:55:01;;;;;;;8.37;6.33;;;;;;;;;;2612887;54;20422;-74
2023/11/13 03:57:27;;;;;;;10.13;6.57;;;;;;;;;;2612447;54;21012;-74
2023/11/13 03:59:53;;;;;;;10.53;6.30;;;;;;;;;;2612061;54;20982;-74
2023/11/13 04:02:20;;;;;;;9.63;6.70;;;;;;;;;;2613219;54;20413;-74
2023/11/13 04:04:46;;;;;;;8.60;6.67;;;;;;;;;;2613506;54;20398;-74
2023/11/13 04:07:12;;;;;;;10.10;6.50;;;;;;;;;;2613381;54;20393;-74
2023/11/13 04:09:38;;;;;;;8.07;5.80;;;;;;;;;;2613434;54;20405;-74
2023/11/13 04:12:05;;;;;;;8.60;6.00;;;;;;;;;;2612865;47;21339;-74
2023/11/13 04:14:31;;;;;;;9.03;7.20;;;;;;;;;;2613689;54;20411;-74
2023/11/13 04:16:57;;;;;;;7.87;5.90;;;;;;;;;;2613254;54;20566;-73
2023/11/13 04:19:23;;;;;;;7.30;5.33;;;;;;;;;;2614026;39;20867;-74
2023/11/13 04:21:49;;;;;;;8.70;6.83;;;;;;;;;;2613610;54;20553;-74
2023/11/13 04:24:15;;;;;;;9.40;6.70;;;;;;;;;;2613682;54;20519;-74
2023/11/13 04:26:41;;;;;;;13.87;7.17;;;;;;;;;;2613647;54;20553;-73
2023/11/13 04:29:07;;;;;;;8.50;6.53;;;;;;;;;;2613807;54;20393;-74
2023/11/13 04:31:34;;;;;;;6.83;5.80;;;;;;;;;;2613126;54;21013;-74
2023/11/13 04:34:00;;;;;;;7.87;6.17;;;;;;;;;;2612865;54;20424;-74
2023/11/13 04:36:26;;;;;;;10.40;6.60;;;;;;;;;;2613887;54;20393;-73
2023/11/13 04:38:52;;;;;;;9.07;7.20;;;;;;;;;;2613293;54;20396;-72
2023/11/13 04:41:18;;;;;;;13.30;7.20;;;;;;;;;;2613785;54;20502;-73
2023/11/13 04:43:45;;;;;;;7.30;6.23;;;;;;;;;;2613658;54;20494;-72
2023/11/13 04:46:12;;;;;;;9.77;7.03;;;;;;;;;;2613404;54;20420;-73
2023/11/13 04:48:39;;;;;;;8.73;7.17;;;;;;;;;;2613403;54;20932;-73
2023/11/13 04:51:05;;;;;;;9.97;6.30;;;;;;;;;;2613569;54;20404;-73
2023/11/13 04:53:31;;;;;;;10.70;7.20;;;;;;;;;;2613066;54;20441;-74
2023/11/13 04:55:57;;;;;;;7.43;6.20;;;;;;;;;;2613722;54;20407;-73
2023/11/13 04:58:23;;;;;;;7.87;6.33;;;;;;;;;;2612740;54;20996;-74
2023/11/13 05:00:50;;;;;;;11.63;6.53;;;;;;;;;;2613711;54;20434;-74
2023/11/13 05:03:16;;;;;;;7.57;6.43;;;;;;;;;;2612871;47;20905;-74
2023/11/13 05:05:42;;;;;;;7.57;6.73;;;;;;;;;;2613317;54;20913;-73
2023/11/13 05:08:08;;;;;;;10.47;7.23;;;;;;;;;;2613725;54;20419;-73
2023/11/13 05:10:35;;;;;;;9.83;6.47;;;;;;;;;;2613389;54;20941;-73
2023/11/13 05:13:01;;;;;;;11.83;6.50;;;;;;;;;;2613500;54;20431;-73
2023/11/13 05:15:29;;;;;;;10.63;7.33;;;;;;;;;;2613535;54;21020;-74
2023/11/13 05:17:55;;;;;;;12.10;7.03;;;;;;;;;;2612910;54;20443;-74
2023/11/13 05:20:21;;;;;;;8.73;6.93;;;;;;;;;;2613647;54;20464;-73
2023/11/13 05:22:48;;;;;;;9.50;6.37;;;;;;;;;;2613621;54;20418;-73
2023/11/13 05:25:15;;;;;;;9.70;7.20;;;;;;;;;;2612734;54;20431;-73
2023/11/13 05:27:42;;;;;;;14.07;7.60;;;;;;;;;;2613459;54;20410;-73
2023/11/13 05:30:08;;;;;;;10.07;6.70;;;;;;;;;;2613257;54;20399;-73
2023/11/13 05:32:35;;;;;;;10.03;7.63;;;;;;;;;;2613517;54;20430;-75
2023/11/13 05:35:01;;;;;;;9.63;6.50;;;;;;;;;;2613408;54;20458;-74
2023/11/13 05:37:27;;;;;;;10.30;7.00;;;;;;;;;;2612683;47;20495;-72
2023/11/13 05:39:54;;;;;;;11.17;6.87;;;;;;;;;;2613370;54;20529;-74
2023/11/13 05:42:23;;;;;;;8.13;6.73;;;;;;;;;;2613208;54;21290;-73
2023/11/13 05:44:49;;;;;;;12.83;6.60;;;;;;;;;;2613153;54;20441;-74
2023/11/13 05:47:15;;;;;;;9.60;6.73;;;;;;;;;;2613436;54;20422;-72
2023/11/13 05:49:41;;;;;;;12.00;6.27;;;;;;;;;;2613910;39;20801;-73
2023/11/13 05:52:07;;;;;;;7.90;6.63;;;;;;;;;;2612426;54;20408;-74
2023/11/13 05:54:33;;;;;;;9.57;6.60;;;;;;;;;;2613668;39;20834;-74
2023/11/13 05:56:59;;;;;;;7.87;5.73;;;;;;;;;;2613275;54;20980;-74
2023/11/13 05:59:25;;;;;;;8.57;6.13;;;;;;;;;;2613170;54;20430;-74
2023/11/13 06:01:51;;;;;;;9.50;5.87;;;;;;;;;;2612186;54;20419;-73
2023/11/13 06:04:17;;;;;;;7.63;6.70;;;;;;;;;;2612705;54;20407;-74
2023/11/13 06:06:47;;;;;;;7.10;5.53;;;;;;;;;;2613228;54;20402;-75
2023/11/13 06:09:13;;;;;;;7.90;5.77;;;;;;;;;;2612602;47;20411;-75
2023/11/13 06:11:39;;;;;;;10.90;6.10;;;;;;;;;;2612661;47;20440;-73
2023/11/13 06:14:06;;;;;;;8.43;6.07;;;;;;;;;;2612086;47;20419;-73
2023/11/13 06:16:33;;;;;;;7.00;5.30;;;;;;;;;;2612382;47;20470;-74
2023/11/13 06:18:59;;;;;;;5.90;5.10;;;;;;;;;;2612665;47;20449;-75
2023/11/13 06:21:25;;;;;;;7.80;5.23;;;;;;;;;;2612674;47;20427;-74
2023/11/13 06:23:51;;;;;;;6.93;5.37;;;;;;;;;;2611045;39;21220;-78
2023/11/13 06:26:17;;;;;;;13.20;4.80;;;;;;;;;;2612277;54;20534;-72
2023/11/13 06:28:43;;;;;;;5.23;4.17;;;;;;;;;;2612686;54;20450;-75
2023/11/13 06:31:10;;;;;;;6.20;4.97;;;;;;;;;;2612183;46;20480;-73
2023/11/13 06:33:36;;;;;;;6.93;5.10;;;;;;;;;;2612013;39;20617;-73
2023/11/13 06:36:11;;;;;;;10.03;4.47;;;;;;;;;;2610792;54;20406;-74
2023/11/13 06:38:38;;;;;;;7.30;5.07;;;;;;;;;;2612009;54;20432;-73
2023/11/13 06:41:05;;;;;;;6.80;6.07;;;;;;;;;;2611035;54;20419;-73
2023/11/13 06:43:31;;;;;;;8.57;5.43;;;;;;;;;;2611923;54;20418;-73
2023/11/13 06:46:01;;;;;;;9.80;6.93;;;;;;;;;;2612170;54;20546;-73
2023/11/13 06:48:27;;;;;;;9.20;6.40;;;;;;;;;;2612558;54;21003;-73
2023/11/13 06:50:53;;;;;;;12.30;6.47;;;;;;;;;;2611627;46;20415;-73
2023/11/13 06:53:19;;;;;;;9.10;6.97;;;;;;;;;;2613027;39;20683;-72
2023/11/13 06:55:46;;;;;;;8.87;7.07;;;;;;;;;;2609846;54;20403;-72
2023/11/13 06:58:12;;;;;;;9.70;6.60;;;;;;;;;;2611366;47;20460;-72
2023/11/13 07:00:38;;;;;;;8.70;6.90;;;;;;;;;;2611018;54;20972;-72
2023/11/13 07:03:04;;;;;;;15.07;7.60;;;;;;;;;;2611184;54;20457;-73
2023/11/13 07:05:31;;;;;;;10.20;7.17;;;;;;;;;;2611566;47;20411;-73
2023/11/13 07:07:57;;;;;;;11.97;7.33;;;;;;;;;;2612083;54;20430;-72
2023/11/13 07:10:26;;;;;;;12.30;7.60;;;;;;;;;;2611459;54;20879;-71
2023/11/13 07:12:52;;;;;;;10.97;8.20;;;;;;;;;;2612219;54;20390;-72
2023/11/13 07:15:19;;;;;;;14.77;7.63;;;;;;;;;;2607213;54;20474;-73
2023/11/13 07:17:46;;;;;;;15.60;9.03;;;;;;;;;;2611710;54;20516;-74
2023/11/13 07:20:18;;;;;;;14.47;9.43;;;;;;;;;;2610521;47;20450;-74
2023/11/13 07:22:45;;;;;;;13.27;8.93;;;;;;;;;;2611504;54;20428;-73
2023/11/13 07:25:11;;;;;;;15.53;8.70;;;;;;;;;;2611620;54;20430;-74
2023/11/13 07:27:37;;;;;;;16.57;10.27;;;;;;;;;;2611430;47;20451;-74
2023/11/13 07:30:03;;;;;;;18.40;9.43;;;;;;;;;;2611585;39;20616;-74
2023/11/13 07:32:29;;;;;;;14.13;9.20;;;;;;;;;;2611887;54;20410;-75
2023/11/13 07:34:55;;;;;;;12.80;7.93;;;;;;;;;;2611852;54;20443;-75
2023/11/13 07:37:23;;;;;;;13.30;9.03;;;;;;;;;;2611965;54;21000;-75
2023/11/13 07:39:53;;;;;;;26.13;10.40;;;;;;;;;;2612333;47;20434;-73
2023/11/13 07:42:19;;;;;;;16.70;10.20;;;;;;;;;;2611999;47;20434;-74
2023/11/13 07:44:49;;;;;;;16.40;10.23;;;;;;;;;;2612641;47;20430;-73
2023/11/13 07:47:18;;;;;;;18.50;8.47;;;;;;;;;;2613207;39;20931;-75
2023/11/13 07:49:45;;;;;;;17.00;7.87;;;;;;;;;;2612237;54;20417;-74
2023/11/13 07:52:12;;;;;;;18.00;8.80;;;;;;;;;;2612810;54;20423;-73
2023/11/13 07:54:42;;;;;;;20.80;10.10;;;;;;;;;;2613131;54;20431;-73
2023/11/13 07:57:09;;;;;;;12.57;8.60;;;;;;;;;;2612431;54;20522;-74
2023/11/13 07:59:36;;;;;;;18.30;8.10;;;;;;;;;;2612601;54;21024;-72
2023/11/13 08:02:03;;;;;;;10.30;6.80;;;;;;;;;;2612116;54;20436;-73
2023/11/13 08:04:29;;;;;;;15.23;7.60;;;;;;;;;;2612292;49;20411;-76
2023/11/13 08:06:55;;;;;;;10.50;6.53;;;;;;;;;;2613832;54;20407;-77
2023/11/13 08:09:22;;;;;;;12.53;8.97;;;;;;;;;;2613033;47;20413;-76
2023/11/13 08:11:48;;;;;;;21.07;7.83;;;;;;;;;;2612978;50;20443;-77
2023/11/13 08:14:14;;;;;;;20.30;8.50;;;;;;;;;;2612750;54;20416;-74
2023/11/13 08:16:41;;;;;;;17.40;7.30;;;;;;;;;;2612446;54;20381;-75
2023/11/13 08:19:07;;;;;;;15.83;6.97;;;;;;;;;;2612253;54;20434;-74
2023/11/13 08:21:34;;;;;;;14.80;6.90;;;;;;;;;;2611512;54;20526;-73
2023/11/13 08:24:00;;;;;;;11.83;5.10;;;;;;;;;;2613126;54;20398;-75
2023/11/13 08:26:29;;;;;;;12.53;6.10;;;;;;;;;;2612087;54;21008;-74
2023/11/13 08:28:59;;;;;;;15.70;6.10;;;;;;;;;;2612793;54;20854;-74
2023/11/13 08:31:26;;;;;;;7.43;4.83;;;;;;;;;;2612220;54;20518;-75
2023/11/13 08:33:52;;;;;;;14.37;6.10;;;;;;;;;;2612264;39;20872;-74
2023/11/13 08:36:22;;;;;;;10.57;6.33;;;;;;;;;;2611094;54;20411;-76
2023/11/13 08:38:48;;;;;;;14.33;5.73;;;;;;;;;;2611623;39;20885;-74
2023/11/13 08:41:14;;;;;;;9.07;5.67;;;;;;;;;;2611361;54;20400;-76
2023/11/13 08:43:40;;;;;;;9.97;5.03;;;;;;;;;;2612015;54;20443;-74
2023/11/13 08:46:06;;;;;;;10.57;6.00;;;;;;;;;;2611749;54;20446;-73
2023/11/13 08:48:32;;;;;;;7.90;4.40;;;;;;;;;;2612970;54;21021;-75
2023/11/13 08:50:59;;;;;;;9.53;3.87;;;;;;;;;;2612721;54;20447;-73
2023/11/13 08:53:28;;;;;;;10.30;4.90;;;;;;;;;;2613051;54;20430;-74
2023/11/13 08:55:56;;;;;;;7.70;4.17;;;;;;;;;;2612375;54;20938;-73
2023/11/13 08:58:22;;;;;;;9.37;3.90;;;;;;;;;;2609814;54;20461;-72
2023/11/13 09:00:49;;;;;;;6.17;3.77;;;;;;;;;;2610534;54;20399;-73
2023/11/13 09:03:16;;;;;;;9.27;4.57;;;;;;;;;;2612240;54;20419;-73
2023/11/13 09:05:42;;;;;;;8.03;4.60;;;;;;;;;;2612120;54;20906;-74
2023/11/13 09:08:08;;;;;;;9.07;4.00;;;;;;;;;;2612008;54;20413;-74
2023/11/13 09:10:35;;;;;;;11.97;3.90;;;;;;;;;;2612007;54;20515;-75
2023/11/13 09:13:03;;;;;;;16.63;5.13;;;;;;;;;;2612569;54;20458;-74
2023/11/13 09:15:31;;;;;;;6.57;5.00;;;;;;;;;;2612563;54;20423;-73
2023/11/13 09:18:06;;;;;;;9.50;4.63;;;;;;;;;;2611893;54;20476;-74
2023/11/13 09:20:41;;;;;;;6.00;3.90;;;;;;;;;;2612339;54;20459;-73
2023/11/13 09:23:09;;;;;;;8.00;3.53;;;;;;;;;;2611663;47;20415;-73
2023/11/13 09:25:35;;;;;;;8.90;4.33;;;;;;;;;;2611400;39;20790;-74
2023/11/13 09:28:01;;;;;;;8.83;3.33;;;;;;;;;;2611631;54;20950;-72
2023/11/13 09:30:27;;;;;;;14.03;3.80;;;;;;;;;;2611555;47;20416;-74
2023/11/13 09:32:53;;;;;;;8.43;3.60;;;;;;;;;;2612964;39;20812;-73
2023/11/13 09:35:24;;;;;;;4.83;3.00;;;;;;;;;;2613093;39;20743;-73
2023/11/13 09:38:01;;;;;;;8.63;2.50;;;;;;;;;;2612385;54;20427;-74
2023/11/13 09:40:29;;;;;;;8.13;3.73;;;;;;;;;;2613024;54;20921;-74
2023/11/13 09:42:55;;;;;;;4.17;2.77;;;;;;;;;;2611500;47;20518;-73
2023/11/13 09:45:22;;;;;;;4.10;2.37;;;;;;;;;;2612811;54;20449;-75
2023/11/13 09:47:49;;;;;;;7.83;3.30;;;;;;;;;;2611925;54;20400;-72
2023/11/13 09:50:16;;;;;;;6.40;3.10;;;;;;;;;;2611378;54;20406;-74
2023/11/13 09:52:46;;;;;;;5.60;2.50;;;;;;;;;;2611668;47;20433;-74
2023/11/13 09:55:13;;;;;;;5.83;3.20;;;;;;;;;;2612543;54;20391;-74
2023/11/13 09:57:39;;;;;;;4.93;2.83;;;;;;;;;;2612046;54;20420;-72
2023/11/13 10:00:16;;;;;;;6.90;2.47;;;;;;;;;;2612662;54;20998;-73
2023/11/13 10:02:49;;;;;;;4.83;2.83;;;;;;;;;;2611112;54;20423;-74
2023/11/13 10:05:15;;;;;;;3.93;2.23;;;;;;;;;;2612100;54;20382;-72
2023/11/13 10:07:48;;;;;;;6.13;2.80;;;;;;;;;;2612302;54;20391;-73
2023/11/13 10:10:23;;;;;;;4.37;1.80;;;;;;;;;;2611515;54;20443;-73
2023/11/13 10:12:53;;;;;;;10.10;2.23;;;;;;;;;;2611621;54;20439;-73
2023/11/13 10:15:29;;;;;;;4.23;2.00;;;;;;;;;;2612074;54;20427;-74
2023/11/13 10:17:59;;;;;;;3.37;2.20;;;;;;;;;;2612730;39;20615;-74
2023/11/13 10:20:26;;;;;;;3.77;2.13;;;;;;;;;;2612602;54;21069;-75
2023/11/13 10:23:08;;;;;;;5.07;2.27;;;;;;;;;;2608727;47;20432;-76
2023/11/13 10:25:50;;;;;;;4.17;1.63;;;;;;;;;;2610450;54;20429;-75
2023/11/13 10:28:22;;;;;;;3.63;1.87;;;;;;;;;;2609358;47;20414;-74
2023/11/13 10:30:55;;;;;;;4.97;1.70;;;;;;;;;;2610535;54;20431;-75
2023/11/13 10:33:22;;;;;;;7.40;2.60;;;;;;;;;;2610122;47;20494;-76
2023/11/13 10:35:50;;;;;;;4.17;1.83;;;;;;;;;;2610060;46;20425;-75
2023/11/13 10:38:16;;;;;;;4.43;1.73;;;;;;;;;;2610537;39;20818;-75
2023/11/13 10:40:46;;;;;;;2.90;1.80;;;;;;;;;;2610056;54;20420;-74
2023/11/13 10:43:25;;;;;;;3.47;1.80;;;;;;;;;;2610293;47;20969;-74
2023/11/13 10:45:51;;;;;;;4.67;1.87;;;;;;;;;;2609916;54;20432;-73
2023/11/13 10:48:22;;;;;;;2.70;1.77;;;;;;;;;;2609455;54;20989;-73
2023/11/13 10:50:48;;;;;;;3.00;1.50;;;;;;;;;;2610652;54;21013;-73
2023/11/13 10:53:16;;;;;;;2.63;1.40;;;;;;;;;;2609967;47;20443;-72
2023/11/13 10:55:42;;;;;;;7.77;2.10;;;;;;;;;;2610914;54;20427;-75
2023/11/13 10:58:08;;;;;;;4.23;2.00;;;;;;;;;;2611679;54;20435;-74
2023/11/13 11:00:34;;;;;;;2.60;1.43;;;;;;;;;;2612717;54;20416;-75
2023/11/13 11:03:05;;;;;;;3.40;1.50;;;;;;;;;;2611027;47;20408;-74
2023/11/13 11:05:34;;;;;;;2.70;1.40;;;;;;;;;;2612423;31;20910;-74
2023/11/13 11:08:01;;;;;;;3.80;1.60;;;;;;;;;;2611458;39;20868;-75
2023/11/13 11:10:28;;;;;;;2.53;1.30;;;;;;;;;;2610755;54;20423;-74
2023/11/13 11:13:00;;;;;;;3.40;1.60;;;;;;;;;;2611568;39;20751;-74
2023/11/13 11:15:29;;;;;;;2.73;1.50;;;;;;;;;;2610545;54;20583;-74
2023/11/13 11:17:59;;;;;;;4.37;1.70;;;;;;;;;;2610774;54;20447;-75
2023/11/13 11:20:33;;;;;;;3.00;1.70;;;;;;;;;;2610713;54;20404;-75
2023/11/13 11:23:00;;;;;;;3.10;1.37;;;;;;;;;;2611885;54;20399;-75
2023/11/13 11:25:32;;;;;;;2.93;1.30;;;;;;;;;;2611852;54;20950;-75
2023/11/13 11:27:58;;;;;;;3.20;1.53;;;;;;;;;;2611936;47;20452;-76
2023/11/13 11:30:24;;;;;;;3.40;1.93;;;;;;;;;;2610312;54;20416;-75
2023/11/13 11:33:00;;;;;;;2.50;1.67;;;;;;;;;;2610157;54;20455;-75
2023/11/13 11:35:29;;;;;;;3.97;2.70;;;;;;;;;;2610930;54;20415;-75
2023/11/13 11:38:14;;;;;;;4.13;1.90;;;;;;;;;;2611159;54;20418;-75
2023/11/13 11:40:40;;;;;;;2.63;1.73;;;;;;;;;;2611078;39;20830;-75
2023/11/13 11:43:08;;;;;;;3.03;2.13;;;;;;;;;;2610408;54;20535;-77
2023/11/13 11:45:35;;;;;;;4.60;2.17;;;;;;;;;;2611426;54;20980;-74
2023/11/13 11:48:05;;;;;;;3.97;2.07;;;;;;;;;;2611493;54;21144;-74
2023/11/13 11:50:31;;;;;;;3.00;2.20;;;;;;;;;;2610389;54;20415;-76
2023/11/13 11:52:58;;;;;;;5.77;2.63;;;;;;;;;;2610652;46;20432;-73
2023/11/13 11:55:26;;;;;;;6.60;2.03;;;;;;;;;;2610167;54;20467;-74
2023/11/13 11:57:55;;;;;;;3.87;2.80;;;;;;;;;;2608267;54;20416;-74
2023/11/13 12:00:25;;;;;;;7.93;2.47;;;;;;;;;;2610117;47;21240;-75
2023/11/13 12:02:53;;;;;;;7.53;2.10;;;;;;;;;;2611027;39;20806;-75
2023/11/13 12:05:19;;;;;;;9.47;3.87;;;;;;;;;;2611326;54;20499;-78
2023/11/13 12:07:50;;;;;;;3.20;2.00;;;;;;;;;;2611234;39;20818;-78
2023/11/13 12:10:20;;;;;;;8.53;3.20;;;;;;;;;;2611239;39;20513;-77
2023/11/13 12:12:46;;;;;;;3.33;2.23;;;;;;;;;;2610780;54;20404;-80
2023/11/13 12:15:12;;;;;;;6.07;2.70;;;;;;;;;;2610273;54;20407;-79
2023/11/13 12:17:39;;;;;;;4.57;2.40;;;;;;;;;;2610949;54;20463;-78
2023/11/13 12:20:06;;;;;;;3.57;1.80;;;;;;;;;;2611450;54;20399;-78
2023/11/13 12:22:36;;;;;;;2.87;1.70;;;;;;;;;;2611912;54;21160;-77
2023/11/13 12:25:03;;;;;;;5.00;2.80;;;;;;;;;;2612567;54;20427;-76
2023/11/13 12:27:30;;;;;;;9.00;2.63;;;;;;;;;;2612122;54;20384;-76
2023/11/13 12:30:06;;;;;;;3.70;1.47;;;;;;;;;;2610826;54;20419;-76
2023/11/13 12:32:33;;;;;;;5.80;2.17;;;;;;;;;;2611476;54;20391;-77
2023/11/13 12:34:59;;;;;;;6.37;2.10;;;;;;;;;;2611250;54;20472;-78
2023/11/13 12:37:27;;;;;;;4.20;2.00;;;;;;;;;;2610492;54;20423;-76
2023/11/13 12:39:58;;;;;;;8.87;2.30;;;;;;;;;;2611902;54;20956;-75
2023/11/13 12:42:26;;;;;;;4.43;2.17;;;;;;;;;;2611597;54;20427;-76
2023/11/13 12:44:53;;;;;;;9.70;2.20;;;;;;;;;;2611487;54;20424;-76
2023/11/13 12:47:24;;;;;;;5.30;2.00;;;;;;;;;;2611915;54;20458;-78
2023/11/13 12:49:50;;;;;;;4.20;2.20;;;;;;;;;;2612246;54;20435;-77
2023/11/13 12:52:18;;;;;;;4.90;2.50;;;;;;;;;;2610622;54;20402;-77
2023/11/13 12:54:54;;;;;;;4.20;2.00;;;;;;;;;;2611509;54;20486;-78
2023/11/13 12:57:21;;;;;;;6.50;3.60;;;;;;;;;;2611339;47;20435;-78
2023/11/13 12:59:47;;;;;;;5.73;2.60;;;;;;;;;;2612045;54;20411;-78
2023/11/13 13:02:13;;;;;;;6.47;2.23;;;;;;;;;;2612224;54;20411;-76
2023/11/13 13:04:40;;;;;;;8.00;2.10;;;;;;;;;;2613507;54;20419;-75
2023/11/13 13:07:07;;;;;;;3.87;1.53;;;;;;;;;;2613245;54;20438;-76
2023/11/13 13:09:33;;;;;;;5.77;2.90;;;;;;;;;;2613853;54;20392;-76
2023/11/13 13:12:00;;;;;;;7.37;2.40;;;;;;;;;;2613142;54;20420;-76
2023/11/13 13:14:26;;;;;;;3.07;1.90;;;;;;;;;;2613275;54;20392;-76
2023/11/13 13:16:58;;;;;;;3.20;2.30;;;;;;;;;;2613037;54;20419;-75
2023/11/13 13:19:28;;;;;;;4.93;2.30;;;;;;;;;;2611755;54;20571;-75
2023/11/13 13:21:54;;;;;;;5.70;2.53;;;;;;;;;;2613129;54;20934;-75
2023/11/13 13:24:25;;;;;;;5.00;3.00;;;;;;;;;;2613149;54;20427;-75
2023/11/13 13:26:51;;;;;;;4.30;2.20;;;;;;;;;;2613255;39;20752;-75
2023/11/13 13:29:20;;;;;;;13.03;2.87;;;;;;;;;;2612607;47;20434;-75
2023/11/13 13:31:47;;;;;;;4.80;2.30;;;;;;;;;;2612096;54;20510;-75
2023/11/13 13:34:13;;;;;;;6.53;1.20;;;;;;;;;;2612356;54;20539;-73
2023/11/13 13:36:43;;;;;;;3.90;2.17;;;;;;;;;;2613573;54;22170;-74
2023/11/13 13:39:14;;;;;;;8.93;3.50;;;;;;;;;;2612752;54;20420;-74
2023/11/13 13:41:40;;;;;;;2.90;1.80;;;;;;;;;;2612947;54;20514;-74
2023/11/13 13:44:06;;;;;;;3.23;2.50;;;;;;;;;;2612386;50;20970;-72
2023/11/13 13:46:32;;;;;;;3.10;2.33;;;;;;;;;;2612164;47;20431;-74
2023/11/13 13:48:59;;;;;;;3.03;2.27;;;;;;;;;;2612804;54;20406;-75
2023/11/13 13:51:25;;;;;;;5.93;2.50;;;;;;;;;;2612049;54;20465;-75
2023/11/13 13:53:52;;;;;;;6.47;2.73;;;;;;;;;;2611174;46;20418;-74
2023/11/13 13:56:21;;;;;;;6.63;4.00;;;;;;;;;;2610428;54;21040;-74
2023/11/13 13:58:48;;;;;;;4.30;1.80;;;;;;;;;;2609981;47;20416;-74
2023/11/13 14:01:17;;;;;;;4.60;1.97;;;;;;;;;;2610159;54;20404;-74
2023/11/13 14:03:43;;;;;;;2.60;1.70;;;;;;;;;;2612116;46;20420;-74
2023/11/13 14:06:13;;;;;;;3.80;2.10;;;;;;;;;;2609856;51;20438;-75
2023/11/13 14:08:39;;;;;;;2.30;1.60;;;;;;;;;;2611239;54;20403;-76
2023/11/13 14:11:05;;;;;;;6.53;2.70;;;;;;;;;;2609436;54;21328;-75
2023/11/13 14:13:34;;;;;;;4.03;2.93;;;;;;;;;;2610448;39;20881;-74
2023/11/13 14:16:03;;;;;;;4.47;2.37;;;;;;;;;;2610950;54;20395;-74
2023/11/13 14:18:31;;;;;;;2.80;1.90;;;;;;;;;;2613055;39;20948;-74
2023/11/13 14:20:57;;;;;;;3.50;2.40;;;;;;;;;;2610082;47;20412;-76
2023/11/13 14:23:23;;;;;;;4.80;2.50;;;;;;;;;;2611198;54;20486;-75
2023/11/13 14:25:54;;;;;;;3.50;2.30;;;;;;;;;;2609616;54;20419;-74
2023/11/13 14:28:21;;;;;;;4.77;2.10;;;;;;;;;;2610898;54;20431;-74
2023/11/13 14:30:47;;;;;;;3.80;3.13;;;;;;;;;;2610418;51;20412;-74
2023/11/13 14:33:16;;;;;;;4.10;3.00;;;;;;;;;;2610925;54;20384;-74
2023/11/13 14:35:42;;;;;;;3.43;2.43;;;;;;;;;;2610225;47;20424;-74
2023/11/13 14:38:11;;;;;;;3.50;2.50;;;;;;;;;;2609845;47;20411;-72
2023/11/13 14:40:37;;;;;;;4.10;3.40;;;;;;;;;;2610995;54;20446;-75